Time;durP1;ratioP1;P1;durP2;ratioP2;P2;SDS_P1;SDS_P2;PMS_P1;PMS_P2;Temp;Humidity;BMP_temperature;BMP_pressure;BME280_temperature;BME280_humidity;BME280_pressure;Samples;Min_cycle;Max_cycle;Signal;HPM_P1;HPM_P2
2022/09/19 00:01:51;;;;;;;0.30;0.30;;;10.10;99.90;;;10.60;87.33;100657.28;4993316;28;20622;-64
2022/09/19 00:04:28;;;;;;;0.30;0.20;;;10.10;99.90;;;10.43;88.50;100652.44;4999799;28;20640;-66
2022/09/19 00:06:56;;;;;;;0.30;0.20;;;10.10;99.90;;;10.49;88.35;100659.00;4992275;28;21169;-66
2022/09/19 00:09:30;;;;;;;1.90;0.83;;;10.00;99.90;;;10.38;88.22;100651.94;4991193;28;20666;-66
2022/09/19 00:11:57;;;;;;;0.30;0.20;;;10.00;99.90;;;10.20;89.18;100663.63;4992502;28;20653;-67
2022/09/19 00:14:32;;;;;;;0.30;0.20;;;9.90;99.90;;;10.31;87.81;100668.13;4992637;28;20978;-66
2022/09/19 00:17:07;;;;;;;0.30;0.20;;;9.80;99.90;;;10.37;87.98;100668.50;4998289;28;21011;-65
2022/09/19 00:19:36;;;;;;;0.30;0.30;;;9.90;99.90;;;10.35;88.63;100677.41;5002166;28;20647;-63
2022/09/19 00:22:03;;;;;;;0.30;0.20;;;9.90;99.90;;;10.28;88.60;100670.94;5006430;28;20950;-64
2022/09/19 00:24:49;;;;;;;0.30;0.30;;;9.80;99.90;;;10.32;89.74;100672.38;4995748;28;20977;-64
2022/09/19 00:27:23;;;;;;;0.30;0.20;;;9.80;99.90;;;10.34;89.96;100671.34;4992584;28;20624;-66
2022/09/19 00:29:52;;;;;;;0.30;0.30;;;9.80;99.90;;;10.26;89.36;100672.81;4999215;28;20641;-64
2022/09/19 00:32:21;;;;;;;0.30;0.20;;;9.80;99.90;;;10.26;88.59;100670.22;5010580;28;20657;-65
2022/09/19 00:34:50;;;;;;;0.30;0.20;;;9.80;99.90;;;10.28;88.89;100682.22;4995559;28;20646;-62
2022/09/19 00:37:20;;;;;;;0.30;0.20;;;9.80;99.90;;;10.38;88.02;100685.84;4991091;28;20770;-64
2022/09/19 00:39:47;;;;;;;0.30;0.30;;;9.90;99.90;;;10.39;88.16;100691.88;4993171;28;20606;-65
2022/09/19 00:42:24;;;;;;;0.30;0.20;;;9.80;99.90;;;10.45;87.34;100686.25;5005909;28;21186;-64
2022/09/19 00:45:02;;;;;;;0.30;0.20;;;9.80;99.90;;;10.32;88.71;100694.09;5007760;28;21449;-64
2022/09/19 00:47:42;;;;;;;0.30;0.20;;;9.80;99.90;;;10.35;89.13;100693.84;5009654;28;20706;-64
2022/09/19 00:50:26;;;;;;;0.30;0.20;;;9.80;99.90;;;10.41;86.94;100683.03;5027344;28;20659;-64
2022/09/19 00:52:59;;;;;;;0.30;0.20;;;9.80;99.90;;;10.31;88.56;100687.19;5001026;28;20688;-64
2022/09/19 00:55:27;;;;;;;0.30;0.30;;;9.80;99.90;;;10.33;88.26;100685.31;4991559;28;21185;-66
2022/09/19 00:58:22;;;;;;;0.30;0.30;;;9.80;99.90;;;10.41;88.24;100685.63;4990414;28;20657;-64
2022/09/19 01:00:49;;;;;;;0.30;0.30;;;9.90;99.90;;;10.39;87.92;100694.50;5007490;28;20703;-64
2022/09/19 01:03:16;;;;;;;0.30;0.20;;;9.80;99.90;;;10.42;87.73;100689.88;5010946;28;20653;-66
2022/09/19 01:06:15;;;;;;;0.30;0.20;;;9.90;99.90;;;10.31;88.38;100692.41;5004440;28;20997;-65
2022/09/19 01:09:16;;;;;;;0.30;0.30;;;9.80;99.90;;;10.30;88.15;100698.59;5011106;28;20706;-65
2022/09/19 01:11:59;;;;;;;0.30;0.20;;;9.80;99.90;;;10.34;89.03;100697.41;5026675;28;20602;-65
2022/09/19 01:14:53;;;;;;;0.30;0.20;;;9.80;99.90;;;10.21;89.09;100690.53;5006810;28;20687;-64
2022/09/19 01:17:28;;;;;;;0.30;0.20;;;9.70;99.90;;;10.20;89.49;100694.91;4991118;28;20622;-64
2022/09/19 01:20:47;;;;;;;0.30;0.20;;;9.70;99.90;;;10.19;89.93;100693.28;4988752;28;20634;-64
2022/09/19 01:23:23;;;;;;;0.30;0.30;;;9.60;99.90;;;10.26;88.72;100696.28;4994511;28;20621;-65
2022/09/19 01:26:03;;;;;;;0.30;0.20;;;9.70;99.90;;;10.20;90.26;100700.13;5011700;28;20671;-64
2022/09/19 01:28:43;;;;;;;0.30;0.20;;;9.70;99.90;;;10.17;90.16;100697.75;5010643;28;20647;-65
2022/09/19 01:31:22;;;;;;;0.30;0.20;;;9.70;99.90;;;10.14;89.62;100704.00;5009368;28;20709;-65
2022/09/19 01:34:07;;;;;;;0.30;0.20;;;9.70;99.90;;;10.16;88.95;100703.91;4993657;28;20670;-67
2022/09/19 01:36:46;;;;;;;0.30;0.20;;;9.70;99.90;;;10.29;88.35;100703.88;5008923;28;20614;-65
2022/09/19 01:39:21;;;;;;;0.30;0.20;;;9.70;99.90;;;10.34;88.49;100715.69;5009631;28;20741;-65
2022/09/19 01:41:53;;;;;;;0.30;0.20;;;9.80;99.90;;;10.31;87.92;100712.47;5009915;28;20642;-63
2022/09/19 01:44:26;;;;;;;0.30;0.20;;;9.80;99.90;;;10.25;89.06;100712.84;5009047;28;20699;-65
2022/09/19 01:47:20;;;;;;;0.30;0.30;;;9.70;99.90;;;10.24;87.97;100712.06;5010241;28;20660;-64
2022/09/19 01:50:19;;;;;;;0.30;0.20;;;9.80;99.90;;;10.19;88.42;100715.91;4997761;28;21048;-65
2022/09/19 01:53:18;;;;;;;0.30;0.20;;;9.70;99.90;;;10.30;88.70;100719.44;5001248;28;20669;-64
2022/09/19 01:56:28;;;;;;;0.30;0.30;;;9.70;99.90;;;10.15;88.03;100717.88;5008966;28;20619;-64
2022/09/19 01:59:32;;;;;;;0.30;0.30;;;9.70;99.90;;;10.07;89.54;100722.78;5014436;28;21251;-65
2022/09/19 02:02:22;;;;;;;0.30;0.20;;;9.70;99.90;;;10.04;89.59;100721.19;5006365;28;20974;-64
2022/09/19 02:05:18;;;;;;;0.30;0.20;;;9.60;99.90;;;10.11;89.13;100726.88;5011438;28;20649;-65
2022/09/19 02:08:15;;;;;;;0.30;0.20;;;9.60;99.90;;;10.18;88.65;100722.88;4973240;28;20726;-66
2022/09/19 02:10:50;;;;;;;0.30;0.20;;;9.60;99.90;;;10.14;88.76;100729.25;4992415;28;21052;-64
2022/09/19 02:13:17;;;;;;;0.30;0.20;;;9.60;99.90;;;10.24;87.61;100727.69;5002388;28;21020;-65
2022/09/19 02:15:53;;;;;;;0.30;0.20;;;9.70;99.90;;;10.30;87.55;100737.69;5012268;28;20609;-64
2022/09/19 02:18:49;;;;;;;0.30;0.20;;;9.70;99.90;;;10.39;86.64;100731.00;5011413;28;20655;-65
2022/09/19 02:21:25;;;;;;;0.30;0.20;;;9.80;99.90;;;10.37;87.23;100732.91;5011494;28;20644;-64
2022/09/19 02:23:55;;;;;;;0.30;0.20;;;9.80;99.90;;;10.43;87.03;100740.28;5011640;28;21262;-65
2022/09/19 02:26:22;;;;;;;0.30;0.20;;;9.80;99.90;;;10.43;86.91;100732.47;5012976;28;20676;-64
2022/09/19 02:28:55;;;;;;;0.30;0.20;;;9.80;99.90;;;10.45;87.12;100734.03;5007651;28;20657;-64
2022/09/19 02:31:27;;;;;;;0.30;0.20;;;9.90;99.90;;;10.55;86.60;100742.03;5011071;28;21074;-64
2022/09/19 02:34:03;;;;;;;0.30;0.30;;;9.90;99.90;;;10.64;85.76;100739.63;5012299;28;20664;-66
2022/09/19 02:36:56;;;;;;;0.30;0.30;;;10.00;99.90;;;10.73;85.77;100738.97;4999463;28;21004;-65
2022/09/19 02:40:03;;;;;;;0.30;0.20;;;10.00;99.90;;;10.64;86.07;100734.41;4993037;28;20645;-64
2022/09/19 02:43:14;;;;;;;0.30;0.30;;;10.10;99.90;;;10.67;86.71;100746.38;4992654;28;20617;-64
2022/09/19 02:45:46;;;;;;;0.30;0.20;;;10.00;99.90;;;10.70;85.73;100748.78;5005632;28;20687;-65
2022/09/19 02:48:50;;;;;;;0.30;0.20;;;10.10;99.90;;;10.70;86.12;100757.47;5011693;28;20647;-66
2022/09/19 02:51:26;;;;;;;0.30;0.20;;;10.10;99.90;;;10.75;85.75;100752.72;5012376;28;20691;-65
2022/09/19 02:54:02;;;;;;;0.30;0.20;;;10.20;99.90;;;10.70;85.60;100756.63;5028235;28;20668;-65
2022/09/19 02:56:34;;;;;;;0.30;0.20;;;10.10;99.90;;;10.84;84.93;100757.31;5018027;28;20633;-64
2022/09/19 02:59:21;;;;;;;0.30;0.20;;;10.20;99.90;;;10.88;84.14;100761.38;4992253;28;20646;-65
2022/09/19 03:01:54;;;;;;;0.30;0.20;;;10.30;99.90;;;10.98;84.63;100760.72;4992290;28;20616;-65
2022/09/19 03:04:30;;;;;;;0.30;0.20;;;10.40;99.90;;;10.96;83.99;100762.59;4992070;28;20691;-65
2022/09/19 03:07:14;;;;;;;0.30;0.20;;;10.40;99.90;;;10.99;83.32;100762.41;5005703;28;20635;-65
2022/09/19 03:09:50;;;;;;;0.30;0.20;;;10.40;99.90;;;10.88;84.36;100763.97;5003575;28;20625;-65
2022/09/19 03:12:47;;;;;;;0.30;0.20;;;10.30;99.90;;;10.82;84.52;100774.00;4990851;28;21178;-65
2022/09/19 03:15:16;;;;;;;0.30;0.20;;;10.30;99.90;;;10.70;84.96;100773.13;4992731;28;20626;-65
2022/09/19 03:17:49;;;;;;;0.30;0.20;;;10.20;99.90;;;10.74;84.57;100771.97;4991999;28;20658;-65
2022/09/19 03:20:18;;;;;;;0.30;0.20;;;10.20;99.90;;;10.69;85.42;100765.41;4992545;28;20622;-65
2022/09/19 03:22:45;;;;;;;0.30;0.20;;;10.10;99.90;;;10.66;85.20;100770.81;4993335;28;20688;-65
2022/09/19 03:25:14;;;;;;;0.30;0.20;;;10.10;99.90;;;10.66;85.57;100771.66;4996475;28;20682;-65
2022/09/19 03:27:41;;;;;;;0.30;0.20;;;10.10;99.90;;;10.71;85.04;100772.16;5000935;28;20711;-64
2022/09/19 03:30:12;;;;;;;0.30;0.20;;;10.10;99.90;;;10.73;84.60;100772.88;5006068;28;20644;-64
2022/09/19 03:32:45;;;;;;;0.30;0.20;;;10.20;99.90;;;10.72;85.04;100780.81;5010926;28;20644;-64
2022/09/19 03:35:14;;;;;;;0.30;0.20;;;10.10;99.90;;;10.73;84.26;100785.13;5010304;28;20963;-65
2022/09/19 03:37:41;;;;;;;0.30;0.20;;;10.10;99.90;;;10.67;84.55;100793.34;4993012;28;20693;-64
2022/09/19 03:40:09;;;;;;;0.30;0.20;;;10.10;99.90;;;10.63;85.07;100792.75;4993722;28;20664;-64
2022/09/19 03:42:37;;;;;;;0.30;0.20;;;10.10;99.90;;;10.71;84.85;100785.19;4992796;28;21327;-64
2022/09/19 03:45:05;;;;;;;0.30;0.20;;;10.10;99.90;;;10.57;85.04;100797.56;4996846;28;20650;-65
2022/09/19 03:47:32;;;;;;;0.30;0.20;;;10.10;99.90;;;10.61;85.08;100799.84;5010435;28;20652;-65
2022/09/19 03:49:59;;;;;;;0.30;0.20;;;10.00;99.90;;;10.62;85.41;100798.91;5011291;28;21184;-65
2022/09/19 03:52:27;;;;;;;0.30;0.20;;;10.00;99.90;;;10.63;85.56;100802.34;5012086;28;20671;-65
2022/09/19 03:54:54;;;;;;;0.30;0.20;;;10.00;99.90;;;10.65;84.52;100798.69;5003124;28;21081;-64
2022/09/19 03:57:21;;;;;;;0.30;0.20;;;10.00;99.90;;;10.67;84.42;100809.00;5001635;28;20655;-64
2022/09/19 03:59:48;;;;;;;0.30;0.20;;;10.10;99.90;;;10.51;85.97;100805.81;5004381;28;20633;-64
2022/09/19 04:02:15;;;;;;;0.30;0.20;;;10.00;99.90;;;10.59;86.42;100812.16;4991319;28;21169;-64
2022/09/19 04:04:42;;;;;;;0.30;0.20;;;9.90;99.90;;;10.59;85.61;100816.53;5011280;28;20621;-64
2022/09/19 04:07:09;;;;;;;0.30;0.20;;;10.00;99.90;;;10.62;85.87;100811.13;5002949;28;20626;-65
2022/09/19 04:09:35;;;;;;;0.30;0.20;;;10.00;99.90;;;10.69;85.26;100812.38;4991874;28;21172;-64
2022/09/19 04:12:03;;;;;;;0.30;0.20;;;10.10;99.90;;;10.78;84.86;100811.72;4997896;28;20668;-65
2022/09/19 04:14:34;;;;;;;0.30;0.20;;;10.10;99.90;;;10.87;83.39;100808.47;5011898;28;20670;-65
2022/09/19 04:17:01;;;;;;;0.30;0.20;;;10.20;99.90;;;11.00;83.90;100811.03;5011309;28;20606;-65
2022/09/19 04:19:52;;;;;;;0.30;0.20;;;10.30;99.90;;;10.98;83.82;100811.16;5003856;28;21066;-64
2022/09/19 04:22:21;;;;;;;0.30;0.20;;;10.30;99.90;;;10.88;83.05;100813.56;5010470;28;20624;-65
2022/09/19 04:24:49;;;;;;;0.30;0.20;;;10.30;99.90;;;10.97;84.03;100822.53;5010685;28;20950;-64
2022/09/19 04:27:15;;;;;;;0.30;0.20;;;10.30;99.90;;;11.04;82.88;100830.78;5006429;28;20629;-67
2022/09/19 04:29:47;;;;;;;0.30;0.20;;;10.40;99.90;;;11.08;82.44;100832.22;5006051;28;21008;-65
2022/09/19 04:32:15;;;;;;;0.30;0.20;;;10.40;99.90;;;11.14;82.14;100844.88;5011482;28;20622;-64
2022/09/19 04:34:43;;;;;;;0.30;0.20;;;10.50;99.90;;;11.16;83.01;100848.19;5010868;28;20654;-64
2022/09/19 04:37:13;;;;;;;0.30;0.20;;;10.50;99.90;;;11.14;82.57;100845.69;5005727;28;20643;-64
2022/09/19 04:39:40;;;;;;;0.30;0.30;;;10.50;99.90;;;11.07;82.73;100843.63;5010407;28;20614;-66
2022/09/19 04:42:08;;;;;;;0.30;0.20;;;10.40;99.90;;;11.04;83.28;100849.03;4998561;28;20638;-67
2022/09/19 04:44:36;;;;;;;0.30;0.20;;;10.40;99.90;;;11.07;83.02;100846.22;4990250;28;20721;-65
2022/09/19 04:47:06;;;;;;;0.30;0.30;;;10.40;99.90;;;11.03;83.41;100853.44;5005804;28;20629;-65
2022/09/19 04:49:38;;;;;;;0.30;0.20;;;10.40;99.90;;;10.92;84.38;100851.56;4993270;28;20738;-65
2022/09/19 04:52:07;;;;;;;0.30;0.20;;;10.30;99.90;;;10.87;83.53;100853.69;4990861;28;20618;-65
2022/09/19 04:54:37;;;;;;;0.30;0.20;;;10.30;99.90;;;10.90;83.92;100856.06;4991264;28;20658;-66
2022/09/19 04:57:06;;;;;;;0.30;0.20;;;10.30;99.90;;;11.03;83.87;100856.03;4992371;28;20629;-65
2022/09/19 04:59:34;;;;;;;0.30;0.20;;;10.30;99.90;;;11.11;82.57;100851.13;4990814;28;20712;-65
2022/09/19 05:02:06;;;;;;;0.30;0.20;;;10.40;99.90;;;11.17;82.81;100853.31;5004632;28;21210;-65
2022/09/19 05:04:35;;;;;;;0.30;0.20;;;10.40;99.90;;;11.06;84.08;100860.22;5010789;28;20666;-67
2022/09/19 05:07:02;;;;;;;0.30;0.20;;;10.40;99.90;;;11.17;82.77;100865.53;4992152;28;20650;-65
2022/09/19 05:09:29;;;;;;;0.30;0.20;;;10.40;99.90;;;11.15;83.98;100873.47;4990493;28;20650;-65
2022/09/19 05:11:56;;;;;;;0.30;0.20;;;10.50;99.90;;;11.21;84.15;100869.59;5000757;28;21275;-65
2022/09/19 05:14:26;;;;;;;0.40;0.40;;;10.50;99.90;;;11.27;83.39;100870.00;5004836;28;20733;-65
2022/09/19 05:16:54;;;;;;;0.30;0.20;;;10.60;99.90;;;11.33;82.70;100876.56;4990298;28;20614;-65
2022/09/19 05:19:22;;;;;;;0.30;0.20;;;10.50;99.90;;;11.26;83.22;100880.56;4999269;28;21227;-65
2022/09/19 05:21:50;;;;;;;0.30;0.20;;;10.50;99.90;;;11.33;83.21;100879.19;5005368;28;20673;-64
2022/09/19 05:24:18;;;;;;;0.30;0.20;;;10.50;99.90;;;11.39;81.20;100881.34;5010086;28;20626;-65
2022/09/19 05:26:46;;;;;;;0.30;0.20;;;10.60;99.90;;;11.31;81.63;100883.66;5010348;28;20613;-65
2022/09/19 05:29:13;;;;;;;0.30;0.20;;;10.60;99.90;;;11.35;81.56;100888.56;5015687;23;20747;-66
2022/09/19 05:31:44;;;;;;;0.30;0.20;;;10.60;99.90;;;11.39;82.57;100889.19;5010149;28;20680;-65
2022/09/19 05:34:13;;;;;;;0.30;0.20;;;10.70;99.90;;;11.52;81.33;100890.00;5011135;28;21325;-65
2022/09/19 05:36:40;;;;;;;0.30;0.20;;;10.70;99.90;;;11.43;81.77;100895.88;5015398;28;20670;-65
2022/09/19 05:39:07;;;;;;;0.30;0.30;;;10.70;99.90;;;11.57;80.62;100893.94;5003555;28;20663;-65
2022/09/19 05:41:36;;;;;;;0.30;0.20;;;10.80;99.90;;;11.57;81.39;100900.94;4974635;28;21017;-65
2022/09/19 05:44:03;;;;;;;0.30;0.20;;;10.80;99.90;;;11.53;81.21;100892.50;4974441;28;21011;-64
2022/09/19 05:46:30;;;;;;;0.30;0.20;;;10.80;99.90;;;11.58;80.71;100908.66;4988056;28;20634;-65
2022/09/19 05:48:57;;;;;;;0.30;0.20;;;10.80;99.90;;;11.67;80.65;100913.25;4994318;28;21060;-66
2022/09/19 05:51:24;;;;;;;0.30;0.20;;;10.90;99.90;;;11.68;80.64;100912.34;4994077;28;20622;-65
2022/09/19 05:53:52;;;;;;;0.30;0.20;;;10.90;99.90;;;11.77;80.11;100910.84;4994185;28;20674;-65
2022/09/19 05:56:19;;;;;;;0.30;0.20;;;11.00;99.90;;;11.85;79.60;100913.72;4995227;28;20610;-65
2022/09/19 05:58:46;;;;;;;0.30;0.20;;;11.00;99.90;;;11.87;79.64;100913.59;4993303;28;21079;-64
2022/09/19 06:01:14;;;;;;;0.30;0.20;;;11.10;99.90;;;11.82;79.71;100915.72;4994557;28;20594;-65
2022/09/19 06:03:41;;;;;;;0.30;0.20;;;11.10;99.90;;;11.85;79.44;100924.19;5009856;28;20626;-65
2022/09/19 06:06:13;;;;;;;0.30;0.20;;;11.10;99.90;;;11.98;79.51;100922.34;4994444;28;20643;-65
2022/09/19 06:08:42;;;;;;;0.30;0.20;;;11.20;99.90;;;11.94;79.29;100926.13;4985668;28;20645;-65
2022/09/19 06:11:09;;;;;;;0.30;0.20;;;11.30;99.90;;;12.09;78.73;100937.25;4993265;28;20635;-66
2022/09/19 06:16:23;;;;;;;0.30;0.30;;;11.30;99.90;;;12.24;77.72;100936.97;4992865;28;20638;-66
2022/09/19 06:18:49;;;;;;;0.30;0.20;;;11.40;99.90;;;12.33;77.00;100938.88;4980295;28;20796;-66
2022/09/19 06:21:16;;;;;;;0.30;0.20;;;11.50;99.90;;;12.33;77.38;100938.03;4990957;28;20634;-65
2022/09/19 06:23:43;;;;;;;0.30;0.20;;;11.50;99.90;;;12.35;77.50;100946.63;4993442;28;20623;-65
2022/09/19 06:26:11;;;;;;;0.30;0.20;;;11.50;99.90;;;12.35;77.80;100942.22;4992831;28;20665;-65
2022/09/19 06:28:38;;;;;;;0.30;0.20;;;11.60;99.90;;;12.43;77.16;100950.34;4992599;28;20672;-66
2022/09/19 06:31:07;;;;;;;0.30;0.20;;;11.60;99.90;;;12.35;76.73;100947.44;4994375;28;20622;-65
2022/09/19 06:33:35;;;;;;;0.30;0.20;;;11.60;99.90;;;12.62;76.49;100957.66;4993652;28;20619;-66
2022/09/19 06:36:03;;;;;;;0.30;0.20;;;11.70;99.90;;;13.05;74.93;100955.25;4994269;28;20635;-66
2022/09/19 06:38:31;;;;;;;0.30;0.20;;;12.00;99.90;;;13.41;73.65;100952.41;4977627;28;20646;-66
2022/09/19 06:40:58;;;;;;;0.30;0.20;;;12.30;99.90;;;14.26;71.14;100958.63;4994094;28;20730;-66
2022/09/19 06:43:26;;;;;;;0.30;0.30;;;12.80;99.90;;;16.39;64.43;100961.88;4995007;28;20621;-65
2022/09/19 06:45:53;;;;;;;0.30;0.30;;;13.90;99.90;;;17.64;58.95;100970.28;4987542;28;20647;-65
2022/09/19 06:48:20;;;;;;;0.30;0.30;;;15.00;99.90;;;17.66;57.71;100963.06;4991729;28;20700;-66
2022/09/19 06:50:48;;;;;;;0.30;0.30;;;15.50;99.90;;;17.38;58.46;100969.25;4990788;28;20634;-65
2022/09/19 06:53:16;;;;;;;0.30;0.30;;;15.70;99.90;;;17.14;59.16;100974.25;4993336;28;20677;-66
2022/09/19 06:55:43;;;;;;;0.30;0.30;;;15.70;99.90;;;16.90;59.08;100970.28;4993234;28;20663;-66
2022/09/19 06:58:15;;;;;;;0.30;0.27;;;15.60;99.90;;;16.80;59.82;100972.09;4989533;28;20627;-66
2022/09/19 07:01:06;;;;;;;0.30;0.30;;;15.60;99.90;;;16.80;60.38;100976.56;4990081;28;21264;-65
2022/09/19 07:03:35;;;;;;;0.30;0.30;;;15.60;99.90;;;16.72;59.47;100979.03;4991533;28;20619;-65
2022/09/19 07:06:02;;;;;;;0.30;0.30;;;15.50;99.90;;;16.80;59.52;100985.28;4992026;28;20677;-65
2022/09/19 07:08:29;;;;;;;0.30;0.30;;;15.50;99.90;;;16.80;60.28;100985.28;4992991;28;20630;-62
2022/09/19 07:10:57;;;;;;;0.30;0.30;;;15.50;99.90;;;16.83;60.05;100992.91;4990477;28;20758;-64
2022/09/19 07:13:24;;;;;;;0.30;0.20;;;15.50;99.90;;;17.08;59.28;100987.00;4992428;28;20685;-66
2022/09/19 07:16:00;;;;;;;0.30;0.30;;;15.70;99.90;;;17.29;58.93;100993.91;4991501;28;21046;-66
2022/09/19 07:18:27;;;;;;;0.30;0.30;;;15.90;99.90;;;17.69;57.83;100990.00;4989011;28;20769;-66
2022/09/19 07:20:54;;;;;;;1.07;0.97;;;16.20;99.90;;;17.78;57.74;100993.56;4991517;28;20626;-66
2022/09/19 07:23:21;;;;;;;0.30;0.30;;;16.40;99.90;;;17.76;56.99;100995.50;4990077;28;20630;-64
2022/09/19 07:25:48;;;;;;;0.60;0.60;;;16.50;99.90;;;17.82;56.87;100995.72;4992905;28;20606;-66
2022/09/19 07:28:17;;;;;;;0.30;0.30;;;16.50;99.90;;;18.26;55.88;100999.34;4992009;28;20713;-67
2022/09/19 07:30:46;;;;;;;0.30;0.30;;;16.70;99.90;;;19.18;52.93;100999.75;4990894;28;20634;-67
2022/09/19 07:33:20;;;;;;;0.30;0.30;;;17.30;99.90;;;19.36;52.84;101003.19;4990632;28;20633;-67
2022/09/19 07:35:47;;;;;;;0.30;0.30;;;17.60;99.90;;;18.95;53.08;101002.06;5005865;28;20654;-66
2022/09/19 07:38:17;;;;;;;0.30;0.30;;;17.50;99.90;;;18.34;55.20;101002.06;5011507;28;20634;-65
2022/09/19 07:40:45;;;;;;;0.30;0.30;;;17.20;99.90;;;17.67;57.13;101001.69;4992389;28;20614;-64
2022/09/19 07:43:14;;;;;;;0.30;0.30;;;16.70;99.90;;;17.40;58.07;100988.44;4992846;28;20995;-66
2022/09/19 07:45:50;;;;;;;0.30;0.30;;;16.40;99.90;;;17.10;59.32;101001.88;4990633;28;20639;-66
2022/09/19 07:48:18;;;;;;;0.30;0.30;;;16.10;99.90;;;17.02;60.09;101006.03;4989547;28;20651;-66
2022/09/19 07:50:47;;;;;;;0.50;0.50;;;16.00;99.90;;;16.87;60.59;101009.25;4972459;28;20616;-67
2022/09/19 07:53:22;;;;;;;0.30;0.30;;;15.90;99.90;;;16.89;60.99;101020.50;4987171;28;20640;-67
2022/09/19 07:55:54;;;;;;;0.30;0.30;;;15.80;99.90;;;16.96;61.59;101019.78;4972484;28;20627;-66
2022/09/19 07:58:25;;;;;;;0.30;0.30;;;15.80;99.90;;;17.04;61.12;101016.44;4973239;28;20635;-66
2022/09/19 08:00:53;;;;;;;0.30;0.30;;;15.90;99.90;;;17.35;60.66;101022.31;4983994;28;20694;-67
2022/09/19 08:03:21;;;;;;;0.30;0.30;;;16.10;99.90;;;17.79;58.67;101026.88;4991323;28;20713;-65
2022/09/19 08:05:51;;;;;;;0.30;0.30;;;16.40;99.90;;;18.02;58.29;101027.31;5000326;28;20622;-66
2022/09/19 08:08:22;;;;;;;0.30;0.30;;;16.60;99.90;;;18.06;58.22;101032.13;4992089;28;20647;-66
2022/09/19 08:10:49;;;;;;;0.30;0.30;;;16.70;99.90;;;17.76;58.67;101027.16;5007918;28;21198;-66
2022/09/19 08:13:17;;;;;;;0.50;0.50;;;16.60;99.90;;;17.60;59.65;101033.09;4982010;28;20643;-66
2022/09/19 08:15:46;;;;;;;0.30;0.30;;;16.60;99.90;;;17.66;59.59;101021.94;4991153;28;20686;-68
2022/09/19 08:18:18;;;;;;;0.30;0.30;;;16.50;99.90;;;17.87;59.38;101028.81;4989100;28;20650;-66
2022/09/19 08:20:46;;;;;;;0.30;0.30;;;16.60;99.90;;;18.18;58.29;101032.78;4988141;28;20668;-66
2022/09/19 08:23:17;;;;;;;0.30;0.30;;;16.80;99.90;;;18.56;57.24;101027.22;4989962;28;21267;-66
2022/09/19 08:25:51;;;;;;;1.77;1.67;;;17.00;99.90;;;18.78;56.52;101039.16;4989761;28;20610;-65
2022/09/19 08:28:22;;;;;;;0.30;0.30;;;17.20;99.90;;;18.51;56.70;101040.06;4991401;28;20668;-66
2022/09/19 08:30:49;;;;;;;0.30;0.30;;;17.20;99.90;;;18.22;57.15;101039.41;4990715;28;20626;-65
2022/09/19 08:33:18;;;;;;;0.30;0.30;;;17.10;99.90;;;17.85;58.71;101036.84;4992119;28;20658;-67
2022/09/19 08:35:45;;;;;;;0.30;0.20;;;16.80;99.90;;;18.27;58.04;101037.16;4988926;28;20729;-67
2022/09/19 08:38:13;;;;;;;0.30;0.30;;;16.90;99.90;;;20.22;51.97;101047.06;4991203;28;21017;-66
2022/09/19 08:40:40;;;;;;;0.30;0.30;;;17.90;99.90;;;20.56;50.49;101047.78;4990297;28;20631;-67
2022/09/19 08:43:44;;;;;;;0.30;0.30;;;18.50;99.90;;;20.46;50.84;101051.59;4992579;28;20619;-67
2022/09/19 08:46:33;;;;;;;0.30;0.30;;;18.70;99.90;;;19.75;52.71;101054.66;4961325;28;21013;-66
2022/09/19 08:49:28;;;;;;;0.30;0.30;;;18.40;99.90;;;19.03;54.54;101047.13;5005427;28;21231;-66
2022/09/19 08:52:13;;;;;;;0.30;0.30;;;18.10;99.90;;;18.56;55.68;101057.13;4989356;28;20643;-66
2022/09/19 08:54:49;;;;;;;0.30;0.30;;;17.60;99.90;;;18.57;56.47;101064.06;4990984;28;21225;-66
2022/09/19 08:57:35;;;;;;;0.30;0.30;;;17.40;99.90;;;18.48;56.39;101059.69;4990387;28;20973;-65
2022/09/19 09:00:07;;;;;;;0.30;0.30;;;17.30;99.90;;;19.78;53.76;101061.47;4990196;28;21105;-65
2022/09/19 09:03:01;;;;;;;0.30;0.30;;;17.80;99.90;;;21.01;49.67;101063.22;4989546;28;20693;-66
2022/09/19 09:05:44;;;;;;;0.30;0.30;;;18.70;99.90;;;21.87;48.13;101068.72;4972876;28;20689;-65
2022/09/19 09:08:39;;;;;;;0.30;0.30;;;19.40;99.90;;;25.82;40.13;101065.56;4982229;28;21307;-66
2022/09/19 09:11:30;;;;;;;0.30;0.30;;;21.30;99.90;;;25.38;40.24;101076.56;4971811;28;21030;-66
2022/09/19 09:14:12;;;;;;;0.30;0.30;;;22.10;97.70;;;23.57;43.24;101064.59;4982357;28;21193;-66
2022/09/19 09:17:19;;;;;;;0.30;0.30;;;21.70;97.10;;;21.63;47.91;101064.28;4986270;28;20634;-65
2022/09/19 09:20:37;;;;;;;0.30;0.30;;;20.60;98.30;;;20.50;50.80;101066.16;4970044;28;21277;-66
2022/09/19 09:23:15;;;;;;;0.30;0.30;;;19.70;99.60;;;19.45;53.63;101060.47;4985550;28;20623;-66
2022/09/19 09:25:47;;;;;;;0.30;0.30;;;18.70;99.90;;;18.81;55.24;101066.09;5004482;28;20634;-65
2022/09/19 09:28:44;;;;;;;0.30;0.30;;;17.90;99.90;;;18.35;57.54;101069.78;4990790;28;20797;-65
2022/09/19 09:31:26;;;;;;;0.30;0.30;;;17.40;99.90;;;18.16;58.04;101061.97;4999009;28;20689;-66
2022/09/19 09:34:10;;;;;;;0.30;0.30;;;17.10;99.90;;;18.30;58.08;101061.47;4988781;28;20685;-66
2022/09/19 09:36:49;;;;;;;0.30;0.30;;;17.10;99.90;;;19.28;55.59;101066.59;4991508;28;20634;-66
2022/09/19 09:39:49;;;;;;;0.30;0.30;;;17.50;99.90;;;24.64;43.38;101071.81;4991238;28;20642;-66
2022/09/19 09:42:22;;;;;;;0.30;0.30;;;;;;;26.28;38.72;101065.72;4971845;28;21024;-66
2022/09/19 09:45:44;;;;;;;0.30;0.30;;;22.00;97.90;;;25.18;40.40;101069.44;4988425;28;20947;-66
2022/09/19 09:48:26;;;;;;;0.30;0.30;;;22.40;96.50;;;24.78;42.31;101068.31;4982268;28;20757;-66
2022/09/19 09:51:03;;;;;;;0.30;0.30;;;22.40;96.10;;;24.03;42.88;101059.84;4989596;28;21052;-66
2022/09/19 09:53:53;;;;;;;0.30;0.30;;;22.20;95.50;;;22.65;44.71;101054.31;5005915;28;21209;-66
2022/09/19 09:56:40;;;;;;;0.30;0.30;;;21.40;95.80;;;22.28;46.16;101052.38;4989756;28;20732;-66
2022/09/19 10:05:50;;;;;;;0.30;0.30;;;19.50;98.50;;;20.32;50.77;101058.34;4988983;28;21039;-66
2022/09/19 10:08:31;;;;;;;0.30;0.30;;;19.10;99.60;;;20.24;51.38;101049.56;4989839;28;21056;-66
2022/09/19 10:11:09;;;;;;;0.30;0.30;;;18.90;99.90;;;20.06;52.22;101049.63;4989288;28;20625;-65
2022/09/19 10:14:01;;;;;;;0.40;0.40;;;18.80;99.90;;;19.71;53.57;101041.91;4990357;28;21180;-65
2022/09/19 10:16:34;;;;;;;0.30;0.30;;;18.50;99.90;;;19.52;54.05;101050.91;4991071;28;20666;-65
2022/09/19 10:19:15;;;;;;;0.30;0.30;;;18.40;99.90;;;19.25;54.72;101056.34;4981700;28;20658;-68
2022/09/19 10:21:42;;;;;;;0.30;0.30;;;18.20;99.90;;;19.28;54.30;101035.69;4970401;28;20642;-65
2022/09/19 10:24:52;;;;;;;0.30;0.30;;;18.20;99.90;;;19.16;54.30;101036.13;4994779;28;21171;-67
2022/09/19 10:27:24;;;;;;;0.30;0.30;;;18.10;99.90;;;19.19;54.62;101043.72;4994449;28;20649;-66
2022/09/19 10:30:19;;;;;;;0.30;0.30;;;18.10;99.90;;;19.35;54.63;101043.88;4991584;28;20744;-65
2022/09/19 10:32:47;;;;;;;0.30;0.30;;;18.10;99.90;;;20.08;53.40;101051.13;4993432;28;20661;-65
2022/09/19 10:35:37;;;;;;;0.30;0.30;;;18.50;99.90;;;21.14;50.22;101055.59;4994251;28;20666;-65
2022/09/19 10:38:16;;;;;;;0.30;0.30;;;19.30;99.90;;;21.31;49.07;101046.63;4989373;28;20642;-66
2022/09/19 10:41:01;;;;;;;0.30;0.30;;;19.70;99.90;;;21.18;48.72;101054.25;4994024;28;20622;-66
2022/09/19 10:43:43;;;;;;;0.30;0.30;;;19.60;99.90;;;21.00;48.52;101058.06;4993579;28;20991;-66
2022/09/19 10:46:21;;;;;;;0.30;0.30;;;19.50;99.70;;;20.87;48.76;101053.25;4992862;28;20638;-66
2022/09/19 10:48:56;;;;;;;0.30;0.30;;;19.50;99.30;;;20.71;49.50;101054.09;4993218;28;20642;-66
2022/09/19 10:51:33;;;;;;;0.30;0.30;;;19.30;99.80;;;20.94;49.49;101048.94;4992929;28;21193;-65
2022/09/19 10:54:11;;;;;;;0.30;0.30;;;19.30;99.90;;;20.98;49.69;101052.09;4992390;28;20614;-66
2022/09/19 10:56:41;;;;;;;0.30;0.30;;;19.30;99.90;;;20.98;50.09;101057.38;4993349;28;20666;-65
2022/09/19 10:59:14;;;;;;;0.30;0.30;;;19.40;99.90;;;20.92;50.40;101047.44;4993966;28;20639;-66